sensor_id;sensor_type;location;lat;lon;timestamp;temperature;humidity
35613;DHT22;22054;51.646;7.078;2022-07-29T00:00:45;19.40;99.90
35613;DHT22;22054;51.646;7.078;2022-07-29T00:03:12;19.40;99.90
35613;DHT22;22054;51.646;7.078;2022-07-29T00:05:39;19.40;99.90
35613;DHT22;22054;51.646;7.078;2022-07-29T00:08:06;19.20;99.90
35613;DHT22;22054;51.646;7.078;2022-07-29T00:10:33;19.30;99.90
35613;DHT22;22054;51.646;7.078;2022-07-29T00:12:59;19.20;99.90
35613;DHT22;22054;51.646;7.078;2022-07-29T00:15:25;19.20;99.90
35613;DHT22;22054;51.646;7.078;2022-07-29T00:17:50;19.20;99.90
35613;DHT22;22054;51.646;7.078;2022-07-29T00:20:16;19.20;99.90
35613;DHT22;22054;51.646;7.078;2022-07-29T00:22:43;19.10;99.90
35613;DHT22;22054;51.646;7.078;2022-07-29T00:25:09;19.10;99.90
35613;DHT22;22054;51.646;7.078;2022-07-29T00:27:35;19.10;99.90
35613;DHT22;22054;51.646;7.078;2022-07-29T00:30:03;19.10;99.90
35613;DHT22;22054;51.646;7.078;2022-07-29T00:32:29;19.10;99.90
35613;DHT22;22054;51.646;7.078;2022-07-29T00:34:55;19.10;99.90
35613;DHT22;22054;51.646;7.078;2022-07-29T00:37:39;19.10;99.90
35613;DHT22;22054;51.646;7.078;2022-07-29T00:40:05;19.00;99.90
35613;DHT22;22054;51.646;7.078;2022-07-29T00:42:48;19.00;99.90
35613;DHT22;22054;51.646;7.078;2022-07-29T00:45:15;19.00;99.90
35613;DHT22;22054;51.646;7.078;2022-07-29T00:47:41;19.00;1.00
35613;DHT22;22054;51.646;7.078;2022-07-29T00:50:09;19.00;99.90
35613;DHT22;22054;51.646;7.078;2022-07-29T00:52:37;19.00;99.90
35613;DHT22;22054;51.646;7.078;2022-07-29T00:55:06;19.10;99.90
35613;DHT22;22054;51.646;7.078;2022-07-29T00:57:34;18.90;99.90
35613;DHT22;22054;51.646;7.078;2022-07-29T01:00:03;18.90;1.00
35613;DHT22;22054;51.646;7.078;2022-07-29T01:02:30;18.90;1.00
35613;DHT22;22054;51.646;7.078;2022-07-29T01:04:56;18.90;1.00
35613;DHT22;22054;51.646;7.078;2022-07-29T01:07:23;18.80;1.00
35613;DHT22;22054;51.646;7.078;2022-07-29T01:09:50;19.00;1.00
35613;DHT22;22054;51.646;7.078;2022-07-29T01:12:23;18.70;1.00
35613;DHT22;22054;51.646;7.078;2022-07-29T01:14:50;18.70;1.00
35613;DHT22;22054;51.646;7.078;2022-07-29T01:17:33;18.70;1.00
35613;DHT22;22054;51.646;7.078;2022-07-29T01:23:26;18.60;1.00
35613;DHT22;22054;51.646;7.078;2022-07-29T01:29:10;18.60;1.00
35613;DHT22;22054;51.646;7.078;2022-07-29T01:31:57;18.50;1.00
35613;DHT22;22054;51.646;7.078;2022-07-29T01:34:35;18.60;1.00
35613;DHT22;22054;51.646;7.078;2022-07-29T01:37:22;18.50;1.00
35613;DHT22;22054;51.646;7.078;2022-07-29T01:39:52;18.50;1.00
35613;DHT22;22054;51.646;7.078;2022-07-29T01:42:59;18.50;1.00
35613;DHT22;22054;51.646;7.078;2022-07-29T01:45:39;18.50;1.00
35613;DHT22;22054;51.646;7.078;2022-07-29T01:50:45;18.40;1.00
35613;DHT22;22054;51.646;7.078;2022-07-29T01:53:16;18.40;1.00
35613;DHT22;22054;51.646;7.078;2022-07-29T01:55:56;18.40;1.00
35613;DHT22;22054;51.646;7.078;2022-07-29T01:58:24;18.30;1.00
35613;DHT22;22054;51.646;7.078;2022-07-29T02:00:52;18.40;1.00
35613;DHT22;22054;51.646;7.078;2022-07-29T02:03:19;18.30;1.00
35613;DHT22;22054;51.646;7.078;2022-07-29T02:05:47;18.30;42.70
35613;DHT22;22054;51.646;7.078;2022-07-29T02:08:14;18.30;99.90
35613;DHT22;22054;51.646;7.078;2022-07-29T02:10:42;18.40;99.90
35613;DHT22;22054;51.646;7.078;2022-07-29T02:13:11;18.30;99.90
35613;DHT22;22054;51.646;7.078;2022-07-29T02:15:39;18.30;99.90
35613;DHT22;22054;51.646;7.078;2022-07-29T02:18:16;18.30;99.90
35613;DHT22;22054;51.646;7.078;2022-07-29T02:20:49;18.20;99.90
35613;DHT22;22054;51.646;7.078;2022-07-29T02:23:19;18.20;99.90
35613;DHT22;22054;51.646;7.078;2022-07-29T02:25:49;18.20;99.90
35613;DHT22;22054;51.646;7.078;2022-07-29T02:28:17;18.20;1.00
35613;DHT22;22054;51.646;7.078;2022-07-29T02:30:44;18.10;1.00
35613;DHT22;22054;51.646;7.078;2022-07-29T02:33:14;18.10;1.00
35613;DHT22;22054;51.646;7.078;2022-07-29T02:35:40;18.10;1.00
35613;DHT22;22054;51.646;7.078;2022-07-29T02:38:12;18.10;1.00
35613;DHT22;22054;51.646;7.078;2022-07-29T02:41:03;18.00;1.00
35613;DHT22;22054;51.646;7.078;2022-07-29T02:43:34;18.00;12.80
35613;DHT22;22054;51.646;7.078;2022-07-29T02:46:03;17.90;28.70
35613;DHT22;22054;51.646;7.078;2022-07-29T02:48:36;18.00;99.90
35613;DHT22;22054;51.646;7.078;2022-07-29T02:51:19;17.90;99.90
35613;DHT22;22054;51.646;7.078;2022-07-29T02:53:53;17.90;99.90
35613;DHT22;22054;51.646;7.078;2022-07-29T02:56:25;17.80;1.00
35613;DHT22;22054;51.646;7.078;2022-07-29T02:58:59;17.90;1.00
35613;DHT22;22054;51.646;7.078;2022-07-29T03:01:31;17.80;1.00
35613;DHT22;22054;51.646;7.078;2022-07-29T03:03:57;17.80;1.00
35613;DHT22;22054;51.646;7.078;2022-07-29T03:06:26;17.80;1.00
35613;DHT22;22054;51.646;7.078;2022-07-29T03:08:54;17.80;99.90
35613;DHT22;22054;51.646;7.078;2022-07-29T03:11:20;17.70;99.90
35613;DHT22;22054;51.646;7.078;2022-07-29T03:13:47;17.70;39.00
35613;DHT22;22054;51.646;7.078;2022-07-29T03:16:13;17.70;99.90
35613;DHT22;22054;51.646;7.078;2022-07-29T03:18:39;17.70;2.70
35613;DHT22;22054;51.646;7.078;2022-07-29T03:21:05;17.70;1.00
35613;DHT22;22054;51.646;7.078;2022-07-29T03:23:31;17.70;99.90
35613;DHT22;22054;51.646;7.078;2022-07-29T03:25:57;17.60;99.90
35613;DHT22;22054;51.646;7.078;2022-07-29T03:28:23;17.80;99.90
35613;DHT22;22054;51.646;7.078;2022-07-29T03:30:49;17.80;1.00
35613;DHT22;22054;51.646;7.078;2022-07-29T03:33:15;17.90;1.00
35613;DHT22;22054;51.646;7.078;2022-07-29T03:35:41;17.90;1.00
35613;DHT22;22054;51.646;7.078;2022-07-29T03:38:07;17.80;1.00
35613;DHT22;22054;51.646;7.078;2022-07-29T03:40:58;17.70;1.00
35613;DHT22;22054;51.646;7.078;2022-07-29T03:43:29;17.70;99.90
35613;DHT22;22054;51.646;7.078;2022-07-29T03:45:57;17.70;99.90
35613;DHT22;22054;51.646;7.078;2022-07-29T03:48:26;17.70;1.00
35613;DHT22;22054;51.646;7.078;2022-07-29T03:50:55;17.70;1.00
35613;DHT22;22054;51.646;7.078;2022-07-29T03:53:21;17.70;1.00
35613;DHT22;22054;51.646;7.078;2022-07-29T03:55:53;17.70;1.00
35613;DHT22;22054;51.646;7.078;2022-07-29T03:58:21;17.80;99.90
35613;DHT22;22054;51.646;7.078;2022-07-29T04:00:48;17.80;41.90
35613;DHT22;22054;51.646;7.078;2022-07-29T04:03:14;17.80;99.90
35613;DHT22;22054;51.646;7.078;2022-07-29T04:05:39;17.80;99.90
35613;DHT22;22054;51.646;7.078;2022-07-29T04:08:05;17.80;1.00
35613;DHT22;22054;51.646;7.078;2022-07-29T04:10:31;17.90;99.90
35613;DHT22;22054;51.646;7.078;2022-07-29T04:12:57;17.80;1.00
35613;DHT22;22054;51.646;7.078;2022-07-29T04:15:24;17.80;99.90
35613;DHT22;22054;51.646;7.078;2022-07-29T04:17:50;17.80;1.00
35613;DHT22;22054;51.646;7.078;2022-07-29T04:20:15;17.80;1.00
35613;DHT22;22054;51.646;7.078;2022-07-29T04:22:42;17.80;99.90
35613;DHT22;22054;51.646;7.078;2022-07-29T04:25:08;17.80;99.90
35613;DHT22;22054;51.646;7.078;2022-07-29T04:27:34;17.80;99.90
35613;DHT22;22054;51.646;7.078;2022-07-29T04:30:00;17.80;1.00
35613;DHT22;22054;51.646;7.078;2022-07-29T04:32:26;17.70;1.00
35613;DHT22;22054;51.646;7.078;2022-07-29T04:34:52;17.80;1.00
35613;DHT22;22054;51.646;7.078;2022-07-29T04:37:18;17.80;1.00
35613;DHT22;22054;51.646;7.078;2022-07-29T04:39:43;17.70;1.00
35613;DHT22;22054;51.646;7.078;2022-07-29T04:42:09;17.60;1.00
35613;DHT22;22054;51.646;7.078;2022-07-29T04:44:35;17.20;1.00
35613;DHT22;22054;51.646;7.078;2022-07-29T04:47:00;16.90;1.00
35613;DHT22;22054;51.646;7.078;2022-07-29T04:49:26;16.60;1.00
35613;DHT22;22054;51.646;7.078;2022-07-29T04:51:52;16.50;1.00
35613;DHT22;22054;51.646;7.078;2022-07-29T04:54:18;16.40;1.00
35613;DHT22;22054;51.646;7.078;2022-07-29T04:56:43;16.30;1.00
35613;DHT22;22054;51.646;7.078;2022-07-29T04:59:09;16.30;1.00
35613;DHT22;22054;51.646;7.078;2022-07-29T05:01:35;16.30;1.00
35613;DHT22;22054;51.646;7.078;2022-07-29T05:04:01;16.20;1.00
35613;DHT22;22054;51.646;7.078;2022-07-29T05:06:26;16.10;1.00
35613;DHT22;22054;51.646;7.078;2022-07-29T05:08:52;16.20;1.00
35613;DHT22;22054;51.646;7.078;2022-07-29T05:11:18;16.30;1.00
35613;DHT22;22054;51.646;7.078;2022-07-29T05:13:43;16.20;1.00
35613;DHT22;22054;51.646;7.078;2022-07-29T05:16:09;16.30;1.00
35613;DHT22;22054;51.646;7.078;2022-07-29T05:18:35;16.30;1.00
35613;DHT22;22054;51.646;7.078;2022-07-29T05:21:00;16.30;1.00
35613;DHT22;22054;51.646;7.078;2022-07-29T05:23:26;16.40;1.00
35613;DHT22;22054;51.646;7.078;2022-07-29T05:25:52;16.30;1.00
35613;DHT22;22054;51.646;7.078;2022-07-29T05:28:17;16.20;1.00
35613;DHT22;22054;51.646;7.078;2022-07-29T05:30:43;16.40;1.00
35613;DHT22;22054;51.646;7.078;2022-07-29T05:33:10;16.30;1.00
35613;DHT22;22054;51.646;7.078;2022-07-29T05:35:36;16.30;1.00
35613;DHT22;22054;51.646;7.078;2022-07-29T05:38:02;16.30;1.00
35613;DHT22;22054;51.646;7.078;2022-07-29T05:40:29;16.40;1.00
35613;DHT22;22054;51.646;7.078;2022-07-29T05:42:55;16.40;1.00
35613;DHT22;22054;51.646;7.078;2022-07-29T05:45:21;16.50;1.00
35613;DHT22;22054;51.646;7.078;2022-07-29T05:47:46;16.50;1.00
35613;DHT22;22054;51.646;7.078;2022-07-29T05:50:12;16.50;1.00
35613;DHT22;22054;51.646;7.078;2022-07-29T05:52:38;16.80;1.00
35613;DHT22;22054;51.646;7.078;2022-07-29T05:55:04;16.70;1.00
35613;DHT22;22054;51.646;7.078;2022-07-29T05:57:31;16.60;1.00
35613;DHT22;22054;51.646;7.078;2022-07-29T05:59:57;16.60;1.00
35613;DHT22;22054;51.646;7.078;2022-07-29T06:02:23;16.70;1.00
35613;DHT22;22054;51.646;7.078;2022-07-29T06:04:48;16.70;1.00
35613;DHT22;22054;51.646;7.078;2022-07-29T06:07:14;16.70;11.40
35613;DHT22;22054;51.646;7.078;2022-07-29T06:09:41;16.80;19.00
35613;DHT22;22054;51.646;7.078;2022-07-29T06:12:07;16.80;14.00
35613;DHT22;22054;51.646;7.078;2022-07-29T06:14:33;16.90;10.90
35613;DHT22;22054;51.646;7.078;2022-07-29T06:16:59;16.90;8.80
35613;DHT22;22054;51.646;7.078;2022-07-29T06:19:24;16.90;1.00
35613;DHT22;22054;51.646;7.078;2022-07-29T06:21:51;17.00;1.00
35613;DHT22;22054;51.646;7.078;2022-07-29T06:24:16;16.90;1.00
35613;DHT22;22054;51.646;7.078;2022-07-29T06:26:42;17.00;1.00
35613;DHT22;22054;51.646;7.078;2022-07-29T06:29:09;17.10;1.00
35613;DHT22;22054;51.646;7.078;2022-07-29T06:31:36;17.10;1.00
35613;DHT22;22054;51.646;7.078;2022-07-29T06:34:02;17.10;1.00
35613;DHT22;22054;51.646;7.078;2022-07-29T06:36:28;17.00;1.00
35613;DHT22;22054;51.646;7.078;2022-07-29T06:38:54;17.00;1.00
35613;DHT22;22054;51.646;7.078;2022-07-29T06:41:19;17.10;1.00
35613;DHT22;22054;51.646;7.078;2022-07-29T06:43:45;17.10;5.80
35613;DHT22;22054;51.646;7.078;2022-07-29T06:46:15;17.20;4.20
35613;DHT22;22054;51.646;7.078;2022-07-29T06:48:42;17.30;1.00
35613;DHT22;22054;51.646;7.078;2022-07-29T06:51:09;17.20;1.00
35613;DHT22;22054;51.646;7.078;2022-07-29T06:53:35;17.30;1.00
35613;DHT22;22054;51.646;7.078;2022-07-29T06:56:02;17.40;1.00
35613;DHT22;22054;51.646;7.078;2022-07-29T06:58:29;17.40;1.00
35613;DHT22;22054;51.646;7.078;2022-07-29T07:00:57;17.30;1.00
35613;DHT22;22054;51.646;7.078;2022-07-29T07:03:23;17.20;1.00
35613;DHT22;22054;51.646;7.078;2022-07-29T07:05:50;17.20;1.00
35613;DHT22;22054;51.646;7.078;2022-07-29T07:08:17;17.40;1.00
35613;DHT22;22054;51.646;7.078;2022-07-29T07:10:45;17.50;1.00
35613;DHT22;22054;51.646;7.078;2022-07-29T07:13:11;17.50;1.00
35613;DHT22;22054;51.646;7.078;2022-07-29T07:15:37;17.40;1.00
35613;DHT22;22054;51.646;7.078;2022-07-29T07:18:04;17.40;1.00
35613;DHT22;22054;51.646;7.078;2022-07-29T07:20:31;17.30;1.00
35613;DHT22;22054;51.646;7.078;2022-07-29T07:22:58;17.20;1.00
35613;DHT22;22054;51.646;7.078;2022-07-29T07:25:23;17.20;1.00
35613;DHT22;22054;51.646;7.078;2022-07-29T07:27:49;17.30;1.00
35613;DHT22;22054;51.646;7.078;2022-07-29T07:30:15;17.40;1.00
35613;DHT22;22054;51.646;7.078;2022-07-29T07:32:41;17.40;1.00
35613;DHT22;22054;51.646;7.078;2022-07-29T07:35:08;17.40;1.00
35613;DHT22;22054;51.646;7.078;2022-07-29T07:37:35;17.40;1.00
35613;DHT22;22054;51.646;7.078;2022-07-29T07:40:01;17.40;1.00
35613;DHT22;22054;51.646;7.078;2022-07-29T07:42:27;17.50;1.00
35613;DHT22;22054;51.646;7.078;2022-07-29T07:44:53;17.50;1.00
35613;DHT22;22054;51.646;7.078;2022-07-29T07:47:18;17.50;1.00
35613;DHT22;22054;51.646;7.078;2022-07-29T07:49:52;17.60;1.00
35613;DHT22;22054;51.646;7.078;2022-07-29T07:52:20;17.70;1.00
35613;DHT22;22054;51.646;7.078;2022-07-29T07:54:46;17.90;1.00
35613;DHT22;22054;51.646;7.078;2022-07-29T07:57:13;18.00;1.00
35613;DHT22;22054;51.646;7.078;2022-07-29T07:59:40;18.10;1.00
35613;DHT22;22054;51.646;7.078;2022-07-29T08:02:06;18.20;1.00
35613;DHT22;22054;51.646;7.078;2022-07-29T08:04:32;18.50;99.90
35613;DHT22;22054;51.646;7.078;2022-07-29T08:06:58;18.20;99.90
35613;DHT22;22054;51.646;7.078;2022-07-29T08:09:25;18.30;99.90
35613;DHT22;22054;51.646;7.078;2022-07-29T08:11:52;18.40;99.90
35613;DHT22;22054;51.646;7.078;2022-07-29T08:14:18;18.40;99.90
35613;DHT22;22054;51.646;7.078;2022-07-29T08:16:45;18.90;99.90
35613;DHT22;22054;51.646;7.078;2022-07-29T08:19:10;19.20;99.90
35613;DHT22;22054;51.646;7.078;2022-07-29T08:21:36;19.30;1.00
35613;DHT22;22054;51.646;7.078;2022-07-29T08:24:02;19.30;99.90
35613;DHT22;22054;51.646;7.078;2022-07-29T08:26:47;19.40;99.90
35613;DHT22;22054;51.646;7.078;2022-07-29T08:29:13;19.60;99.90
35613;DHT22;22054;51.646;7.078;2022-07-29T08:31:39;19.70;1.00
35613;DHT22;22054;51.646;7.078;2022-07-29T08:34:05;19.80;1.00
35613;DHT22;22054;51.646;7.078;2022-07-29T08:36:32;19.80;1.00
35613;DHT22;22054;51.646;7.078;2022-07-29T08:38:59;19.90;1.00
35613;DHT22;22054;51.646;7.078;2022-07-29T08:41:25;20.20;1.00
35613;DHT22;22054;51.646;7.078;2022-07-29T08:43:52;20.00;99.90
35613;DHT22;22054;51.646;7.078;2022-07-29T08:46:19;20.10;1.00
35613;DHT22;22054;51.646;7.078;2022-07-29T08:48:46;20.30;1.00
35613;DHT22;22054;51.646;7.078;2022-07-29T08:51:20;20.10;99.90
35613;DHT22;22054;51.646;7.078;2022-07-29T08:53:49;20.10;1.00
35613;DHT22;22054;51.646;7.078;2022-07-29T08:56:17;20.10;99.90
35613;DHT22;22054;51.646;7.078;2022-07-29T08:58:47;20.00;99.90
35613;DHT22;22054;51.646;7.078;2022-07-29T09:01:17;20.00;1.00
35613;DHT22;22054;51.646;7.078;2022-07-29T09:03:47;19.90;1.00
35613;DHT22;22054;51.646;7.078;2022-07-29T09:06:14;19.80;1.00
35613;DHT22;22054;51.646;7.078;2022-07-29T09:08:40;19.70;1.00
35613;DHT22;22054;51.646;7.078;2022-07-29T09:11:06;19.60;1.00
35613;DHT22;22054;51.646;7.078;2022-07-29T09:13:33;19.50;99.90
35613;DHT22;22054;51.646;7.078;2022-07-29T09:16:00;19.50;99.90
35613;DHT22;22054;51.646;7.078;2022-07-29T09:21:03;19.40;1.00
35613;DHT22;22054;51.646;7.078;2022-07-29T09:24:08;19.10;1.00
35613;DHT22;22054;51.646;7.078;2022-07-29T09:26:38;19.10;1.00
35613;DHT22;22054;51.646;7.078;2022-07-29T09:29:12;19.10;1.00
35613;DHT22;22054;51.646;7.078;2022-07-29T09:31:41;19.40;1.00
35613;DHT22;22054;51.646;7.078;2022-07-29T09:34:09;19.10;1.00
35613;DHT22;22054;51.646;7.078;2022-07-29T09:36:43;19.20;1.00
35613;DHT22;22054;51.646;7.078;2022-07-29T09:39:10;19.20;1.00
35613;DHT22;22054;51.646;7.078;2022-07-29T09:41:47;19.30;1.00
35613;DHT22;22054;51.646;7.078;2022-07-29T09:44:14;19.30;1.00
35613;DHT22;22054;51.646;7.078;2022-07-29T09:47:01;19.30;1.00
35613;DHT22;22054;51.646;7.078;2022-07-29T09:49:35;19.30;1.00
35613;DHT22;22054;51.646;7.078;2022-07-29T09:52:07;19.30;1.00
35613;DHT22;22054;51.646;7.078;2022-07-29T09:54:35;19.20;1.00
35613;DHT22;22054;51.646;7.078;2022-07-29T09:57:08;19.20;1.00
35613;DHT22;22054;51.646;7.078;2022-07-29T09:59:41;19.20;1.00
35613;DHT22;22054;51.646;7.078;2022-07-29T10:02:21;19.20;1.00
35613;DHT22;22054;51.646;7.078;2022-07-29T10:04:47;19.10;1.00
35613;DHT22;22054;51.646;7.078;2022-07-29T10:07:12;19.00;1.00
35613;DHT22;22054;51.646;7.078;2022-07-29T10:09:38;19.20;1.00
35613;DHT22;22054;51.646;7.078;2022-07-29T10:12:12;18.80;1.00
35613;DHT22;22054;51.646;7.078;2022-07-29T10:14:40;18.80;1.00
35613;DHT22;22054;51.646;7.078;2022-07-29T10:17:08;18.80;1.00
35613;DHT22;22054;51.646;7.078;2022-07-29T10:19:36;18.80;1.00
35613;DHT22;22054;51.646;7.078;2022-07-29T10:22:05;19.00;1.00
35613;DHT22;22054;51.646;7.078;2022-07-29T10:24:33;18.90;1.00
35613;DHT22;22054;51.646;7.078;2022-07-29T10:27:00;18.90;1.00
35613;DHT22;22054;51.646;7.078;2022-07-29T10:29:28;19.20;1.00
35613;DHT22;22054;51.646;7.078;2022-07-29T10:32:16;19.10;1.00
35613;DHT22;22054;51.646;7.078;2022-07-29T10:35:01;19.20;1.00
35613;DHT22;22054;51.646;7.078;2022-07-29T10:40:45;19.20;1.00
35613;DHT22;22054;51.646;7.078;2022-07-29T10:43:38;19.20;1.00
35613;DHT22;22054;51.646;7.078;2022-07-29T10:46:07;19.20;1.00
35613;DHT22;22054;51.646;7.078;2022-07-29T10:48:33;19.20;1.00
35613;DHT22;22054;51.646;7.078;2022-07-29T10:51:03;19.20;1.00
35613;DHT22;22054;51.646;7.078;2022-07-29T11:05:05;19.50;1.00
35613;DHT22;22054;51.646;7.078;2022-07-29T11:07:35;19.40;1.00
35613;DHT22;22054;51.646;7.078;2022-07-29T11:12:45;19.40;1.00
35613;DHT22;22054;51.646;7.078;2022-07-29T11:15:14;19.40;1.00
35613;DHT22;22054;51.646;7.078;2022-07-29T11:20:41;19.40;1.00
35613;DHT22;22054;51.646;7.078;2022-07-29T11:29:03;19.80;1.00
35613;DHT22;22054;51.646;7.078;2022-07-29T11:31:38;19.80;1.00
35613;DHT22;22054;51.646;7.078;2022-07-29T11:34:28;19.90;99.90
35613;DHT22;22054;51.646;7.078;2022-07-29T11:47:22;22.30;99.90
35613;DHT22;22054;51.646;7.078;2022-07-29T11:49:48;23.50;99.90
35613;DHT22;22054;51.646;7.078;2022-07-29T11:52:16;25.70;50.40
35613;DHT22;22054;51.646;7.078;2022-07-29T11:54:43;27.50;1.00
35613;DHT22;22054;51.646;7.078;2022-07-29T11:57:09;28.70;99.90
35613;DHT22;22054;51.646;7.078;2022-07-29T11:59:40;29.80;99.90
35613;DHT22;22054;51.646;7.078;2022-07-29T12:02:07;30.20;11.00
35613;DHT22;22054;51.646;7.078;2022-07-29T12:04:34;31.00;1.00
35613;DHT22;22054;51.646;7.078;2022-07-29T12:07:13;31.30;1.00
35613;DHT22;22054;51.646;7.078;2022-07-29T12:09:39;31.40;1.00
35613;DHT22;22054;51.646;7.078;2022-07-29T12:12:05;31.80;1.00
35613;DHT22;22054;51.646;7.078;2022-07-29T12:14:32;32.50;1.00
35613;DHT22;22054;51.646;7.078;2022-07-29T12:16:59;32.10;1.00
35613;DHT22;22054;51.646;7.078;2022-07-29T12:19:26;31.70;1.00
35613;DHT22;22054;51.646;7.078;2022-07-29T12:21:53;32.10;1.00
35613;DHT22;22054;51.646;7.078;2022-07-29T12:24:20;32.20;1.00
35613;DHT22;22054;51.646;7.078;2022-07-29T12:26:57;32.70;1.00
35613;DHT22;22054;51.646;7.078;2022-07-29T12:29:24;33.20;1.00
35613;DHT22;22054;51.646;7.078;2022-07-29T12:31:53;33.20;1.00
35613;DHT22;22054;51.646;7.078;2022-07-29T12:34:22;32.80;1.00
35613;DHT22;22054;51.646;7.078;2022-07-29T12:36:49;32.00;1.00
35613;DHT22;22054;51.646;7.078;2022-07-29T12:39:18;32.30;1.00
35613;DHT22;22054;51.646;7.078;2022-07-29T12:41:45;33.20;1.00
35613;DHT22;22054;51.646;7.078;2022-07-29T12:44:11;33.80;1.00
35613;DHT22;22054;51.646;7.078;2022-07-29T12:46:37;33.70;1.00
35613;DHT22;22054;51.646;7.078;2022-07-29T12:49:03;33.00;1.00
35613;DHT22;22054;51.646;7.078;2022-07-29T12:51:36;32.50;1.00
35613;DHT22;22054;51.646;7.078;2022-07-29T12:54:11;31.90;1.00
35613;DHT22;22054;51.646;7.078;2022-07-29T12:56:40;31.80;1.00
35613;DHT22;22054;51.646;7.078;2022-07-29T12:59:18;31.20;1.00
35613;DHT22;22054;51.646;7.078;2022-07-29T13:01:46;30.40;1.00
35613;DHT22;22054;51.646;7.078;2022-07-29T13:04:31;29.50;1.00
35613;DHT22;22054;51.646;7.078;2022-07-29T13:07:05;28.30;1.00
35613;DHT22;22054;51.646;7.078;2022-07-29T13:09:43;27.70;1.00
35613;DHT22;22054;51.646;7.078;2022-07-29T13:12:12;27.10;1.00
35613;DHT22;22054;51.646;7.078;2022-07-29T13:14:45;26.90;1.00
35613;DHT22;22054;51.646;7.078;2022-07-29T13:17:23;26.40;1.00
35613;DHT22;22054;51.646;7.078;2022-07-29T13:20:07;25.90;1.00
35613;DHT22;22054;51.646;7.078;2022-07-29T13:22:37;25.70;7.90
35613;DHT22;22054;51.646;7.078;2022-07-29T13:25:04;25.20;73.50
35613;DHT22;22054;51.646;7.078;2022-07-29T13:27:36;24.90;99.90
35613;DHT22;22054;51.646;7.078;2022-07-29T13:30:05;24.80;99.90
35613;DHT22;22054;51.646;7.078;2022-07-29T13:32:32;24.90;99.90
35613;DHT22;22054;51.646;7.078;2022-07-29T13:35:04;25.00;99.90
35613;DHT22;22054;51.646;7.078;2022-07-29T13:37:33;24.90;99.90
35613;DHT22;22054;51.646;7.078;2022-07-29T13:40:01;24.90;99.90
35613;DHT22;22054;51.646;7.078;2022-07-29T13:42:28;25.10;99.90
35613;DHT22;22054;51.646;7.078;2022-07-29T13:44:54;25.00;99.90
35613;DHT22;22054;51.646;7.078;2022-07-29T13:47:21;25.10;99.90
35613;DHT22;22054;51.646;7.078;2022-07-29T13:49:48;25.30;99.90
35613;DHT22;22054;51.646;7.078;2022-07-29T13:52:14;25.00;99.90
35613;DHT22;22054;51.646;7.078;2022-07-29T13:54:41;24.80;1.00
35613;DHT22;22054;51.646;7.078;2022-07-29T13:57:08;24.80;1.00
35613;DHT22;22054;51.646;7.078;2022-07-29T13:59:35;24.90;1.00
35613;DHT22;22054;51.646;7.078;2022-07-29T14:02:01;25.00;1.00
35613;DHT22;22054;51.646;7.078;2022-07-29T14:04:27;25.10;1.00
35613;DHT22;22054;51.646;7.078;2022-07-29T14:06:53;25.30;1.00
35613;DHT22;22054;51.646;7.078;2022-07-29T14:09:20;25.80;1.00
35613;DHT22;22054;51.646;7.078;2022-07-29T14:11:45;26.30;1.00
35613;DHT22;22054;51.646;7.078;2022-07-29T14:14:14;27.20;99.90
35613;DHT22;22054;51.646;7.078;2022-07-29T14:16:40;28.80;99.90
35613;DHT22;22054;51.646;7.078;2022-07-29T14:19:06;29.50;63.20
35613;DHT22;22054;51.646;7.078;2022-07-29T14:21:32;30.30;1.00
35613;DHT22;22054;51.646;7.078;2022-07-29T14:23:58;31.30;1.00
35613;DHT22;22054;51.646;7.078;2022-07-29T14:26:24;32.70;1.00
35613;DHT22;22054;51.646;7.078;2022-07-29T14:28:49;33.90;1.00
35613;DHT22;22054;51.646;7.078;2022-07-29T14:31:15;34.60;1.00
35613;DHT22;22054;51.646;7.078;2022-07-29T14:33:41;35.40;1.00
35613;DHT22;22054;51.646;7.078;2022-07-29T14:36:07;36.30;1.00
35613;DHT22;22054;51.646;7.078;2022-07-29T14:38:35;37.10;1.00
35613;DHT22;22054;51.646;7.078;2022-07-29T14:41:01;37.70;1.00
35613;DHT22;22054;51.646;7.078;2022-07-29T14:43:27;38.10;1.00
35613;DHT22;22054;51.646;7.078;2022-07-29T14:45:52;38.50;1.00
35613;DHT22;22054;51.646;7.078;2022-07-29T14:48:18;38.50;1.00
35613;DHT22;22054;51.646;7.078;2022-07-29T14:50:44;38.10;1.00
35613;DHT22;22054;51.646;7.078;2022-07-29T14:53:09;38.10;1.00
35613;DHT22;22054;51.646;7.078;2022-07-29T14:55:37;37.00;1.00
35613;DHT22;22054;51.646;7.078;2022-07-29T14:58:03;36.50;1.00
35613;DHT22;22054;51.646;7.078;2022-07-29T15:00:28;36.00;1.00
35613;DHT22;22054;51.646;7.078;2022-07-29T15:02:58;35.40;1.00
35613;DHT22;22054;51.646;7.078;2022-07-29T15:05:27;35.40;1.00
35613;DHT22;22054;51.646;7.078;2022-07-29T15:07:52;35.30;1.00
35613;DHT22;22054;51.646;7.078;2022-07-29T15:10:19;35.40;1.00
35613;DHT22;22054;51.646;7.078;2022-07-29T15:12:45;35.70;1.00
35613;DHT22;22054;51.646;7.078;2022-07-29T15:15:10;35.80;1.00
35613;DHT22;22054;51.646;7.078;2022-07-29T15:17:36;36.10;1.00
35613;DHT22;22054;51.646;7.078;2022-07-29T15:20:02;35.70;1.00
35613;DHT22;22054;51.646;7.078;2022-07-29T15:22:28;36.10;1.00
35613;DHT22;22054;51.646;7.078;2022-07-29T15:24:54;36.30;1.00
35613;DHT22;22054;51.646;7.078;2022-07-29T15:27:20;36.80;1.00
35613;DHT22;22054;51.646;7.078;2022-07-29T15:29:45;36.40;1.00
35613;DHT22;22054;51.646;7.078;2022-07-29T15:32:11;34.80;1.00
35613;DHT22;22054;51.646;7.078;2022-07-29T15:34:37;33.20;1.00
35613;DHT22;22054;51.646;7.078;2022-07-29T15:37:04;32.00;1.00
35613;DHT22;22054;51.646;7.078;2022-07-29T15:39:30;30.70;1.00
35613;DHT22;22054;51.646;7.078;2022-07-29T15:41:56;29.90;1.00
35613;DHT22;22054;51.646;7.078;2022-07-29T15:44:22;29.20;1.00
35613;DHT22;22054;51.646;7.078;2022-07-29T15:46:48;29.10;1.00
35613;DHT22;22054;51.646;7.078;2022-07-29T15:49:31;28.50;1.00
35613;DHT22;22054;51.646;7.078;2022-07-29T15:51:58;28.40;1.00
35613;DHT22;22054;51.646;7.078;2022-07-29T15:54:25;28.20;1.00
35613;DHT22;22054;51.646;7.078;2022-07-29T15:56:52;28.00;1.00
35613;DHT22;22054;51.646;7.078;2022-07-29T15:59:18;27.70;1.00
35613;DHT22;22054;51.646;7.078;2022-07-29T16:01:44;27.50;1.00
35613;DHT22;22054;51.646;7.078;2022-07-29T16:04:09;27.30;1.00
35613;DHT22;22054;51.646;7.078;2022-07-29T16:06:35;27.10;1.00
35613;DHT22;22054;51.646;7.078;2022-07-29T16:09:01;27.40;1.00
35613;DHT22;22054;51.646;7.078;2022-07-29T16:11:27;27.20;1.00
35613;DHT22;22054;51.646;7.078;2022-07-29T16:13:52;26.90;1.00
35613;DHT22;22054;51.646;7.078;2022-07-29T16:16:18;26.80;1.00
35613;DHT22;22054;51.646;7.078;2022-07-29T16:18:44;26.60;1.00
35613;DHT22;22054;51.646;7.078;2022-07-29T16:21:11;26.50;1.00
35613;DHT22;22054;51.646;7.078;2022-07-29T16:23:38;26.40;1.00
35613;DHT22;22054;51.646;7.078;2022-07-29T16:26:04;26.30;1.00
35613;DHT22;22054;51.646;7.078;2022-07-29T16:28:30;26.10;1.00
35613;DHT22;22054;51.646;7.078;2022-07-29T16:30:56;25.90;1.00
35613;DHT22;22054;51.646;7.078;2022-07-29T16:33:23;25.70;1.00
35613;DHT22;22054;51.646;7.078;2022-07-29T16:35:49;25.50;1.00
35613;DHT22;22054;51.646;7.078;2022-07-29T16:38:15;25.10;21.10